.
WxDataArchive / Data Records for 2008-11-15
2008-11-14 November 2008 2008-11-16

Data Records for Saturday, 15 November 2008

Time	Temp	Chill	HIndex	Humid	Dewpt	 Wind 	HiWind	WindDir	Rain 	Barom 
-----	----	-----	------	-----	-----	------	------	-------	-----	----- 
00:00	45.2	45.2	45.2	93	43.3	1	4	270	0.00	29.644 
00:05	45.2	45.2	45.2	93	43.3	1	4	22	0.00	29.645 
00:10	45.1	45.1	45.1	93	43.2	1	4	338	0.00	29.645 
00:15	44.9	44.9	44.9	92	42.7	1	4	292	0.00	29.646 
00:20	44.8	44.8	44.8	92	42.6	1	4	22	0.00	29.644 
00:25	44.6	44.6	44.6	92	42.4	1	3	0	0.00	29.644 
00:30	44.3	44.3	44.3	91	41.8	1	5	0	0.00	29.641 
00:35	44.2	44.2	44.2	91	41.7	1	3	338	0.00	29.644 
00:40	44.2	44.2	44.2	91	41.7	1	5	0	0.00	29.640 
00:45	44.1	44.1	44.1	90	41.4	1	3	338	0.00	29.637 
00:50	44.1	44.1	44.1	90	41.4	1	6	338	0.00	29.645 
00:55	43.9	43.9	43.9	90	41.2	1	6	338	0.00	29.644 
01:00	43.8	43.8	43.8	89	40.8	1	2	338	0.00	29.646 
01:05	43.8	43.8	43.8	89	40.8	1	3	315	0.00	29.646 
01:10	43.6	43.6	43.6	89	40.6	1	5	0	0.00	29.648 
01:15	43.6	43.6	43.6	89	40.6	1	3	0	0.00	29.652 
01:20	43.5	43.5	43.5	89	40.5	1	3	0	0.00	29.643 
01:25	43.5	43.5	43.5	89	40.5	1	4	0	0.00	29.638 
01:30	43.3	43.3	43.3	89	40.3	1	3	22	0.00	29.636 
01:35	43.3	43.3	43.3	89	40.3	1	4	315	0.00	29.638 
01:40	43.3	43.3	43.3	89	40.3	1	3	270	0.00	29.645 
01:45	43.3	43.3	43.3	89	40.3	1	3	0	0.00	29.647 
01:50	43.2	43.2	43.2	89	40.2	1	3	315	0.00	29.642 
01:55	43.2	43.2	43.2	89	40.2	1	3	22	0.00	29.636 
02:00	43.1	43.1	43.1	89	40.1	0	2	292	0.00	29.619 
02:05	43.1	43.1	43.1	89	40.1	1	6	292	0.00	29.631 
02:10	42.9	42.9	42.9	89	39.9	1	3	0	0.00	29.624 
02:15	42.9	42.9	42.9	89	39.9	0	2	0	0.01	29.629 
02:20	42.8	42.8	42.8	89	39.8	1	5	0	0.00	29.628 
02:25	42.6	42.6	42.6	89	39.6	1	5	22	0.00	29.631 
02:30	42.6	42.6	42.6	90	39.9	0	3	0	0.00	29.637 
02:35	42.5	42.5	42.5	90	39.8	1	2	0	0.00	29.629 
02:40	42.3	42.3	42.3	90	39.6	1	3	315	0.00	29.628 
02:45	42.2	42.2	42.2	90	39.5	1	3	0	0.00	29.629 
02:50	42.1	42.1	42.1	90	39.4	1	4	22	0.01	29.622 
02:55	42.1	42.1	42.1	91	39.7	1	3	22	0.00	29.625 
03:00	41.9	41.9	41.9	91	39.5	1	3	315	0.01	29.625 
03:05	41.9	41.9	41.9	91	39.5	1	3	315	0.00	29.621 
03:10	41.8	41.8	41.8	91	39.4	1	2	338	0.01	29.618 
03:15	41.6	41.6	41.6	92	39.5	1	4	270	0.01	29.617 
03:20	41.3	41.3	41.3	92	39.2	1	6	338	0.01	29.618 
03:25	41.2	41.2	41.2	92	39.1	1	3	315	0.00	29.614 
03:30	41.2	41.2	41.2	92	39.1	1	4	292	0.01	29.618 
03:35	41.1	41.1	41.1	92	39.0	1	3	270	0.01	29.608 
03:40	40.9	40.9	40.9	92	38.8	1	4	338	0.00	29.609 
03:45	40.9	40.9	40.9	92	38.8	1	6	0	0.01	29.605 
03:50	40.9	40.9	40.9	92	38.8	1	3	270	0.00	29.604 
03:55	40.8	40.8	40.8	92	38.7	0	2	315	0.01	29.605 
04:00	40.8	40.8	40.8	92	38.7	1	3	315	0.00	29.603 
04:05	40.8	40.8	40.8	92	38.7	1	3	22	0.01	29.599 
04:10	40.6	40.6	40.6	93	38.7	1	4	338	0.00	29.604 
04:15	40.6	40.6	40.6	93	38.7	1	4	338	0.00	29.601 
04:20	40.6	40.6	40.6	92	38.5	1	5	315	0.01	29.595 
04:25	40.6	40.6	40.6	92	38.5	1	6	338	0.00	29.594 
04:30	40.5	40.5	40.5	92	38.4	1	4	315	0.00	29.588 
04:35	40.5	40.5	40.5	92	38.4	1	5	338	0.00	29.590 
04:40	40.5	40.5	40.5	92	38.4	1	5	338	0.00	29.584 
04:45	40.3	40.3	40.3	92	38.2	1	3	0	0.01	29.576 
04:50	40.3	40.3	40.3	92	38.2	1	4	0	0.00	29.579 
04:55	40.3	40.3	40.3	92	38.2	1	2	338	0.00	29.571 
05:00	40.3	40.3	40.3	92	38.2	1	6	315	0.00	29.575 
05:05	40.3	40.3	40.3	92	38.2	2	7	315	0.00	29.581 
05:10	40.2	40.2	40.2	92	38.1	1	4	338	0.00	29.570 
05:15	40.2	40.2	40.2	92	38.1	1	4	0	0.00	29.573 
05:20	40.2	40.2	40.2	92	38.1	1	4	338	0.00	29.575 
05:25	40.2	40.2	40.2	92	38.1	1	4	292	0.00	29.577 
05:30	40.1	40.1	40.1	92	38.0	2	9	338	0.01	29.581 
05:35	40.1	40.1	40.1	92	38.0	1	3	315	0.00	29.579 
05:40	40.1	40.1	40.1	92	38.0	1	3	292	0.00	29.577 
05:45	39.9	39.9	39.9	92	37.8	1	4	315	0.00	29.587 
05:50	39.9	39.9	39.9	92	37.8	1	5	292	0.01	29.587 
05:55	39.9	39.9	39.9	91	37.5	2	5	315	0.00	29.583 
06:00	39.8	39.8	39.8	91	37.4	1	4	0	0.00	29.571 
06:05	39.8	39.8	39.8	91	37.4	1	4	315	0.00	29.571 
06:10	39.8	39.8	39.8	91	37.4	1	4	338	0.00	29.566 
06:15	39.6	39.6	39.6	91	37.2	2	5	292	0.00	29.576 
06:20	39.6	39.6	39.6	91	37.2	1	3	315	0.01	29.581 
06:25	39.6	39.6	39.6	91	37.2	1	4	315	0.00	29.581 
06:30	39.6	39.6	39.6	91	37.2	2	6	338	0.00	29.568 
06:35	39.6	39.6	39.6	91	37.2	2	5	0	0.01	29.576 
06:40	39.6	39.6	39.6	91	37.2	1	3	0	0.00	29.582 
06:45	39.6	39.6	39.6	91	37.2	1	4	22	0.00	29.583 
06:50	39.6	39.6	39.6	91	37.2	1	6	315	0.01	29.586 
06:55	39.5	39.5	39.5	91	37.1	1	4	22	0.00	29.579 
07:00	39.5	39.5	39.5	91	37.1	1	5	338	0.00	29.582 
07:05	39.5	39.5	39.5	91	37.1	1	7	315	0.01	29.580 
07:10	39.5	39.5	39.5	91	37.1	2	5	0	0.00	29.585 
07:15	39.5	39.5	39.5	91	37.1	1	4	338	0.00	29.582 
07:20	39.3	39.3	39.3	91	36.9	2	6	315	0.00	29.579 
07:25	39.3	39.3	39.3	91	36.9	2	4	315	0.00	29.575 
07:30	39.2	39.2	39.2	91	36.8	2	5	0	0.00	29.579 
07:35	39.2	39.2	39.2	91	36.8	2	7	338	0.00	29.584 
07:40	39.1	39.1	39.1	91	36.7	2	5	292	0.01	29.586 
07:45	38.9	38.9	38.9	91	36.5	2	6	338	0.00	29.588 
07:50	38.8	38.8	38.8	91	36.4	2	7	338	0.00	29.589 
07:55	38.6	38.6	38.6	91	36.2	2	5	292	0.01	29.595 
08:00	38.5	38.5	38.5	92	36.4	2	6	292	0.00	29.600 
08:05	38.3	38.3	38.3	92	36.2	1	4	338	0.01	29.595 
08:10	38.0	38.0	38.0	92	35.9	2	6	315	0.00	29.593 
08:15	37.9	37.9	37.9	92	35.8	2	5	0	0.01	29.592 
08:20	37.8	37.8	37.8	92	35.7	2	5	315	0.00	29.590 
08:25	37.6	37.6	37.6	92	35.5	2	8	338	0.01	29.586 
08:30	37.5	37.5	37.5	92	35.4	2	9	0	0.00	29.586 
08:35	37.5	37.5	37.5	92	35.4	2	6	338	0.01	29.581 
08:40	37.3	37.3	37.3	92	35.2	2	10	315	0.01	29.587 
08:45	37.3	37.3	37.3	92	35.2	1	5	270	0.00	29.588 
08:50	37.2	37.2	37.2	92	35.1	1	4	338	0.01	29.588 
08:55	37.2	37.2	37.2	92	35.1	2	5	0	0.00	29.587 
09:00	37.2	37.2	37.2	92	35.1	2	4	315	0.00	29.591 
09:05	37.3	37.3	37.3	92	35.2	2	5	0	0.01	29.594 
09:10	37.3	37.3	37.3	92	35.2	2	5	292	0.00	29.592 
09:15	37.3	37.3	37.3	92	35.2	1	5	0	0.01	29.593 
09:20	37.3	37.3	37.3	92	35.2	2	8	315	0.00	29.594 
09:25	37.3	37.3	37.3	92	35.2	1	6	338	0.01	29.594 
09:30	37.3	37.3	37.3	92	35.2	2	8	315	0.01	29.595 
09:35	37.3	37.3	37.3	92	35.2	1	4	315	0.00	29.597 
09:40	37.2	37.2	37.2	92	35.1	2	6	338	0.00	29.596 
09:45	37.2	37.2	37.2	93	35.4	1	4	0	0.01	29.599 
09:50	37.2	37.2	37.2	93	35.4	1	4	338	0.00	29.598 
09:55	37.2	37.2	37.2	93	35.4	1	4	0	0.00	29.595 
10:00	37.3	37.3	37.3	93	35.5	1	5	315	0.01	29.595 
10:05	37.2	37.2	37.2	93	35.4	1	5	315	0.01	29.594 
10:10	37.2	37.2	37.2	93	35.4	2	5	0	0.00	29.595 
10:15	37.0	37.0	37.0	93	35.2	3	6	292	0.01	29.597 
10:20	37.0	37.0	37.0	93	35.2	1	4	315	0.00	29.605 
10:25	37.0	37.0	37.0	93	35.2	2	6	0	0.00	29.609 
10:30	36.9	36.9	36.9	93	35.1	2	6	315	0.01	29.608 
10:35	36.9	36.9	36.9	93	35.1	1	4	315	0.00	29.608 
10:40	36.9	36.9	36.9	93	35.1	2	5	338	0.01	29.610 
10:45	36.9	36.9	36.9	93	35.1	2	5	338	0.00	29.608 
10:50	36.9	36.9	36.9	93	35.1	2	4	0	0.01	29.607 
10:55	37.0	37.0	37.0	93	35.2	2	7	22	0.00	29.605 
11:00	37.0	37.0	37.0	93	35.2	2	9	315	0.00	29.604 
11:05	37.2	37.2	37.2	93	35.4	2	7	0	0.00	29.609 
11:10	37.2	37.2	37.2	93	35.4	2	5	338	0.01	29.611 
11:15	37.3	37.3	37.3	93	35.5	2	4	315	0.00	29.611 
11:20	37.3	37.3	37.3	93	35.5	1	4	315	0.00	29.613 
11:25	37.5	37.5	37.5	93	35.7	2	7	338	0.00	29.613 
11:30	37.5	37.5	37.5	93	35.7	2	5	338	0.01	29.613 
11:35	37.5	37.5	37.5	93	35.7	1	9	315	0.00	29.614 
11:40	37.6	37.6	37.6	93	35.8	1	4	315	0.00	29.615 
11:45	37.5	37.5	37.5	93	35.7	1	5	315	0.01	29.613 
11:50	37.3	37.3	37.3	93	35.5	2	6	270	0.00	29.612 
11:55	37.5	37.5	37.5	93	35.7	1	4	338	0.01	29.612 
12:00	37.5	37.5	37.5	93	35.7	2	6	292	0.00	29.615 
12:05	37.5	37.5	37.5	93	35.7	1	5	292	0.00	29.618 
12:10	37.6	37.6	37.6	93	35.8	1	5	338	0.00	29.617 
12:15	37.6	37.6	37.6	93	35.8	2	6	315	0.01	29.620 
12:20	37.6	37.6	37.6	93	35.8	2	6	292	0.00	29.619 
12:25	37.5	37.5	37.5	93	35.7	2	6	292	0.00	29.623 
12:30	37.5	37.5	37.5	93	35.7	2	6	292	0.00	29.621 
12:35	37.5	37.5	37.5	93	35.7	1	3	292	0.01	29.620 
12:40	37.5	37.5	37.5	92	35.4	2	5	292	0.00	29.622 
12:45	37.5	37.5	37.5	92	35.4	2	5	315	0.01	29.625 
12:50	37.5	37.5	37.5	92	35.4	2	7	338	0.00	29.626 
12:55	37.5	37.5	37.5	92	35.4	2	5	292	0.00	29.626 
13:00	37.5	37.5	37.5	92	35.4	2	4	315	0.00	29.627 
13:05	37.5	37.5	37.5	92	35.4	2	6	315	0.00	29.630 
13:10	37.5	37.5	37.5	92	35.4	1	4	292	0.01	29.632 
13:15	37.3	37.3	37.3	92	35.2	2	4	270	0.00	29.632 
13:20	37.3	37.3	37.3	92	35.2	1	4	315	0.00	29.632 
13:25	37.3	37.3	37.3	92	35.2	2	6	315	0.00	29.637 
13:30	37.3	37.3	37.3	92	35.2	1	5	315	0.00	29.642 
13:35	37.3	37.3	37.3	92	35.2	2	4	315	0.00	29.642 
13:40	37.3	37.3	37.3	92	35.2	1	3	315	0.00	29.643 
13:45	37.3	37.3	37.3	92	35.2	3	10	292	0.00	29.644 
13:50	37.3	37.3	37.3	92	35.2	1	4	315	0.01	29.645 
13:55	37.2	37.2	37.2	92	35.1	1	3	315	0.00	29.646 
14:00	37.0	37.0	37.0	92	34.9	1	3	338	0.00	29.650 
14:05	36.8	36.8	36.8	92	34.7	1	3	338	0.01	29.652 
14:10	36.5	36.5	36.5	92	34.4	1	3	338	0.00	29.657 
14:15	36.2	36.2	36.2	92	34.1	1	3	338	0.01	29.659 
14:20	36.0	36.0	36.0	92	33.9	1	3	315	0.00	29.661 
14:25	35.9	35.9	35.9	93	34.1	0	2	338	0.00	29.662 
14:30	36.0	36.0	36.0	93	34.2	1	2	292	0.01	29.664 
14:35	36.2	36.2	36.2	93	34.4	1	4	338	0.00	29.664 
14:40	36.5	36.5	36.5	94	34.9	1	3	292	0.01	29.664 
14:45	36.8	36.8	36.8	94	35.2	1	4	315	0.00	29.667 
14:50	37.0	37.0	37.0	94	35.4	2	4	338	0.00	29.668 
14:55	37.2	37.2	37.2	94	35.6	1	3	338	0.00	29.671 
15:00	37.3	37.3	37.3	93	35.5	2	5	338	0.00	29.675 
15:05	37.5	37.5	37.5	93	35.7	2	7	315	0.00	29.676 
15:10	37.6	37.6	37.6	93	35.8	2	4	315	0.00	29.678 
15:15	37.6	37.6	37.6	93	35.8	2	5	315	0.00	29.678 
15:20	37.8	37.8	37.8	92	35.7	2	6	292	0.00	29.678 
15:25	37.9	37.9	37.9	92	35.8	1	6	315	0.01	29.679 
15:30	38.0	38.0	38.0	92	35.9	1	4	270	0.00	29.683 
15:35	38.2	38.2	38.2	92	36.1	1	3	315	0.00	29.686 
15:40	38.2	38.2	38.2	91	35.8	1	3	315	0.00	29.690 
15:45	38.3	38.3	38.3	91	35.9	1	3	315	0.00	29.692 
15:50	38.5	38.5	38.5	91	36.1	1	3	315	0.00	29.692 
15:55	38.6	38.6	38.6	90	35.9	1	3	315	0.00	29.694 
16:00	38.8	38.8	38.8	90	36.1	1	3	338	0.00	29.699 
16:05	38.8	38.8	38.8	89	35.8	1	3	270	0.00	29.705 
16:10	38.9	38.9	38.9	89	35.9	2	7	315	0.00	29.707 
16:15	39.1	39.1	39.1	88	35.9	1	4	315	0.00	29.710 
16:20	39.1	39.1	39.1	88	35.9	1	2	338	0.00	29.711 
16:25	39.2	39.2	39.2	88	35.9	1	3	270	0.00	29.715 
16:30	39.3	39.3	39.3	88	36.0	1	2	315	0.00	29.719 
16:35	39.3	39.3	39.3	87	35.8	1	3	315	0.00	29.722 
16:40	39.3	39.3	39.3	87	35.8	0	2	292	0.00	29.725 
16:45	39.3	39.3	39.3	87	35.8	1	2	292	0.00	29.726 
16:50	39.3	39.3	39.3	87	35.8	1	2	338	0.00	29.728 
16:55	39.5	39.5	39.5	86	35.7	1	4	338	0.00	29.728 
17:00	39.5	39.5	39.5	86	35.7	1	2	315	0.00	29.732 
17:05	39.6	39.6	39.6	85	35.5	1	7	270	0.00	29.736 
17:10	39.6	39.6	39.6	86	35.8	1	4	270	0.00	29.738 
17:15	39.6	39.6	39.6	85	35.5	2	6	338	0.00	29.739 
17:20	39.5	39.5	39.5	85	35.4	3	7	315	0.00	29.741 
17:25	39.3	39.3	39.3	85	35.2	1	6	338	0.00	29.748 
17:30	39.2	39.2	39.2	85	35.1	2	4	248	0.00	29.753 
17:35	39.1	39.1	39.1	85	35.0	1	4	315	0.00	29.754 
17:40	38.9	38.9	38.9	85	34.8	2	6	338	0.00	29.756 
17:45	38.8	38.8	38.8	85	34.7	2	6	292	0.00	29.757 
17:50	38.8	38.8	38.8	85	34.7	2	6	292	0.00	29.758 
17:55	38.8	38.8	38.8	85	34.7	2	6	315	0.00	29.761 
18:00	38.8	38.8	38.8	84	34.4	3	9	338	0.00	29.765 
18:05	38.6	38.6	38.6	84	34.2	3	5	292	0.00	29.766 
18:10	38.6	38.6	38.6	84	34.2	2	7	292	0.00	29.769 
18:15	38.6	38.6	38.6	84	34.2	3	6	292	0.00	29.772 
18:20	38.6	38.6	38.6	84	34.2	2	6	270	0.00	29.772 
18:25	38.5	38.5	38.5	85	34.4	2	3	270	0.00	29.774 
18:30	38.2	38.2	38.2	85	34.1	2	6	270	0.00	29.775 
18:35	38.0	38.0	38.0	86	34.2	3	7	270	0.00	29.778 
18:40	37.9	37.9	37.9	87	34.4	3	6	270	0.00	29.780 
18:45	37.8	37.8	37.8	87	34.3	2	6	248	0.00	29.783 
18:50	37.8	37.8	37.8	87	34.3	2	4	270	0.00	29.785 
18:55	37.9	37.9	37.9	86	34.1	2	6	248	0.00	29.786 
19:00	37.9	37.9	37.9	86	34.1	2	3	248	0.00	29.787 
19:05	38.0	38.0	38.0	85	33.9	2	6	270	0.00	29.790 
19:10	38.2	38.2	38.2	84	33.8	2	6	315	0.00	29.790 
19:15	38.2	38.2	38.2	84	33.8	2	6	315	0.00	29.791 
19:20	38.2	38.2	38.2	84	33.8	2	4	270	0.00	29.792 
19:25	38.2	38.2	38.2	84	33.8	2	6	270	0.00	29.793 
19:30	38.2	38.2	38.2	84	33.8	2	5	292	0.00	29.793 
19:35	38.2	38.2	38.2	83	33.5	2	5	292	0.00	29.793 
19:40	38.2	38.2	38.2	83	33.5	1	3	315	0.00	29.796 
19:45	38.3	38.3	38.3	82	33.3	2	5	338	0.00	29.802 
19:50	38.2	38.2	38.2	83	33.5	1	5	338	0.00	29.805 
19:55	38.2	38.2	38.2	83	33.5	2	4	270	0.00	29.805 
20:00	38.0	38.0	38.0	84	33.6	2	7	315	0.00	29.808 
20:05	37.6	37.6	37.6	85	33.5	2	5	315	0.00	29.810 
20:10	37.3	37.3	37.3	86	33.5	1	4	292	0.00	29.810 
20:15	37.0	37.0	37.0	87	33.5	2	7	292	0.00	29.814 
20:20	37.0	37.0	37.0	87	33.5	2	6	315	0.00	29.815 
20:25	36.9	36.9	36.9	87	33.4	3	6	270	0.00	29.816 
20:30	36.8	36.8	36.8	88	33.6	2	5	315	0.00	29.822 
20:35	36.8	36.8	36.8	88	33.6	2	4	338	0.00	29.823 
20:40	36.6	36.6	36.6	88	33.4	2	5	270	0.00	29.822 
20:45	36.6	36.6	36.6	88	33.4	2	7	315	0.00	29.822 
20:50	36.3	36.3	36.3	89	33.4	2	5	270	0.00	29.823 
20:55	36.2	36.2	36.2	89	33.3	2	9	270	0.00	29.825 
21:00	36.2	36.2	36.2	89	33.3	2	4	248	0.00	29.826 
21:05	36.0	36.0	36.0	90	33.4	1	4	270	0.00	29.827 
21:10	36.0	36.0	36.0	90	33.4	1	3	292	0.00	29.830 
21:15	36.0	36.0	36.0	90	33.4	1	4	292	0.00	29.835 
21:20	35.9	35.9	35.9	90	33.3	1	4	315	0.01	29.838 
21:25	35.9	35.9	35.9	91	33.5	1	3	248	0.00	29.840 
21:30	35.8	35.8	35.8	91	33.4	2	4	248	0.01	29.841 
21:35	35.3	35.3	35.3	91	32.9	2	5	248	0.00	29.843 
21:40	34.9	34.9	34.9	91	32.5	2	3	248	0.00	29.843 
21:45	34.6	34.6	34.6	91	32.2	1	3	248	0.01	29.844 
21:50	34.6	34.6	34.6	92	32.5	1	2	248	0.00	29.845 
21:55	34.6	34.6	34.6	92	32.5	1	2	248	0.00	29.851 
22:00	34.1	34.1	34.1	92	32.0	1	2	292	0.00	29.854 
22:05	33.8	33.8	33.8	92	31.7	1	2	248	0.00	29.853 
22:10	33.7	33.7	33.7	92	31.6	1	3	248	0.00	29.854 
22:15	33.5	33.5	33.5	92	31.4	0	2	248	0.01	29.857 
22:20	33.2	33.2	33.2	93	31.4	0	2	270	0.00	29.857 
22:25	33.1	33.1	33.1	93	31.3	0	2	270	0.00	29.856 
22:30	33.1	33.1	33.1	93	31.3	1	2	270	0.00	29.856 
22:35	32.9	32.9	32.9	93	31.1	1	3	248	0.00	29.856 
22:40	32.9	32.9	32.9	93	31.1	0	1	248	0.00	29.854 
22:45	33.1	33.1	33.1	94	31.6	0	1	248	0.00	29.853 
22:50	33.1	33.1	33.1	94	31.6	0	1	248	0.00	29.852 
22:55	33.4	33.4	33.4	94	31.9	0	2	248	0.01	29.848 
23:00	33.5	33.5	33.5	94	32.0	1	3	248	0.00	29.847 
23:05	33.8	33.8	33.8	94	32.3	1	3	292	0.00	29.844 
23:10	34.1	34.1	34.1	94	32.6	1	3	270	0.01	29.844 
23:15	34.1	34.1	34.1	94	32.6	1	3	270	0.00	29.842 
23:20	34.4	34.4	34.4	94	32.9	2	4	270	0.00	29.842 
23:25	34.6	34.6	34.6	94	33.1	2	6	270	0.00	29.846 
23:30	34.6	34.6	34.6	94	33.1	2	5	248	0.01	29.843 
23:35	34.6	34.6	34.6	93	32.8	2	4	248	0.00	29.843 
23:40	34.6	34.6	34.6	93	32.8	2	5	248	0.00	29.843 
23:45	34.6	34.6	34.6	92	32.5	2	5	248	0.00	29.843 
23:50	34.7	34.7	34.7	92	32.6	2	5	270	0.00	29.843 
23:55	34.6	34.6	34.6	92	32.5	3	8	270	0.00	29.843 

CoCoRaHS
IN-AL-39
A2 Web Hosting
Creative Commons License
GoDaddy
Look for:

loaded 2017-10-16 18:35:58 • last modified 2010-11-18 10:43:29
Privacy PolicyDisclaimer
• wx.awcolley.com is powered by PmWiki v.2002016 •
• all content (unless otherwise noted) © 2017 A W Colley